createdAt,value
2018-06-23T00:02:24.522Z,4.87
2018-06-23T00:04:52.454Z,4.43
2018-06-23T00:07:20.321Z,4.53
2018-06-23T00:09:48.199Z,4.40
2018-06-23T00:12:16.115Z,4.10
2018-06-23T00:14:43.985Z,4.27
2018-06-23T00:17:22.135Z,4.10
2018-06-23T00:19:50.012Z,4.70
2018-06-23T00:22:17.865Z,4.17
2018-06-23T00:24:45.786Z,4.93
2018-06-23T00:27:13.630Z,4.07
2018-06-23T00:29:41.478Z,3.90
2018-06-23T00:32:09.354Z,4.93
2018-06-23T00:34:37.145Z,4.60
2018-06-23T00:37:05.111Z,4.73
2018-06-23T00:39:32.927Z,4.13
2018-06-23T00:42:00.758Z,4.63
2018-06-23T00:44:28.666Z,4.07
2018-06-23T00:46:56.548Z,4.27
2018-06-23T00:49:24.471Z,4.43
2018-06-23T00:51:52.303Z,4.37
2018-06-23T00:54:20.187Z,4.00
2018-06-23T00:56:47.996Z,4.73
2018-06-23T00:59:27.037Z,4.47
2018-06-23T01:01:54.892Z,4.17
2018-06-23T01:04:22.809Z,4.47
2018-06-23T01:06:50.953Z,5.03
2018-06-23T01:09:18.746Z,4.33
2018-06-23T01:11:54.569Z,4.43
2018-06-23T01:14:22.368Z,5.07
2018-06-23T01:16:50.232Z,4.33
2018-06-23T01:19:18.177Z,5.03
2018-06-23T01:21:46.003Z,4.37
2018-06-23T01:24:13.852Z,4.67
2018-06-23T01:26:41.663Z,5.10
2018-06-23T01:29:09.458Z,4.13
2018-06-23T01:31:37.364Z,4.67
2018-06-23T01:34:05.276Z,4.80
2018-06-23T01:36:33.110Z,3.67
2018-06-23T01:39:00.966Z,4.77
2018-06-23T01:41:29.077Z,5.03
2018-06-23T01:43:56.753Z,4.83
2018-06-23T01:46:24.603Z,4.30
2018-06-23T01:48:52.435Z,4.87
2018-06-23T01:51:20.305Z,4.57
2018-06-23T01:53:48.206Z,5.07
2018-06-23T01:56:16.071Z,5.90
2018-06-23T01:58:43.928Z,5.70
2018-06-23T02:01:11.778Z,5.90
2018-06-23T02:03:39.617Z,4.27
2018-06-23T02:06:07.634Z,4.63
2018-06-23T02:08:35.600Z,4.93
2018-06-23T02:11:03.520Z,5.00
2018-06-23T02:13:31.398Z,5.77
2018-06-23T02:16:04.851Z,7.07
2018-06-23T02:18:38.227Z,4.73
2018-06-23T02:21:11.663Z,5.20
2018-06-23T02:23:44.942Z,4.93
2018-06-23T02:27:21.317Z,6.07
2018-06-23T02:29:54.821Z,6.33
2018-06-23T02:32:28.180Z,5.80
2018-06-23T02:34:59.703Z,6.03
2018-06-23T02:37:27.610Z,5.67
2018-06-23T02:39:55.471Z,4.60
2018-06-23T02:42:23.293Z,4.77
2018-06-23T02:44:51.174Z,4.90
2018-06-23T02:47:19.080Z,4.40
2018-06-23T02:49:46.928Z,5.33
2018-06-23T02:52:14.748Z,6.27
2018-06-23T02:54:42.578Z,6.47
2018-06-23T02:57:10.437Z,5.83
2018-06-23T02:59:38.233Z,4.83
2018-06-23T03:02:06.095Z,5.37
2018-06-23T03:04:33.957Z,5.47
2018-06-23T03:07:01.823Z,5.57
2018-06-23T03:09:29.707Z,5.87
2018-06-23T03:11:57.538Z,6.13
2018-06-23T03:14:25.353Z,5.77
2018-06-23T03:16:53.250Z,5.00
2018-06-23T03:19:21.102Z,6.70
2018-06-23T03:21:48.960Z,6.37
2018-06-23T03:24:17.053Z,5.97
2018-06-23T03:26:44.825Z,4.93
2018-06-23T03:29:12.761Z,4.60
2018-06-23T03:31:40.604Z,5.43
2018-06-23T03:34:08.448Z,4.73
2018-06-23T03:36:36.527Z,5.53
2018-06-23T03:39:07.302Z,5.27
2018-06-23T03:41:35.181Z,5.87
2018-06-23T03:44:03.095Z,6.10
2018-06-23T03:46:31.022Z,5.53
2018-06-23T03:48:58.755Z,5.80
2018-06-23T03:51:26.719Z,7.10
2018-06-23T03:53:54.593Z,7.23
2018-06-23T03:56:22.918Z,5.03
2018-06-23T03:58:50.994Z,7.00
2018-06-23T04:01:18.897Z,5.23
2018-06-23T04:03:46.759Z,5.93
2018-06-23T04:06:14.638Z,5.07
2018-06-23T04:08:42.496Z,5.83
2018-06-23T04:11:10.340Z,5.17
2018-06-23T04:13:38.212Z,5.53
2018-06-23T04:16:06.082Z,6.20
2018-06-23T04:18:33.975Z,5.13
2018-06-23T04:21:01.991Z,5.63
2018-06-23T04:23:29.937Z,5.60
2018-06-23T04:25:57.818Z,4.90
2018-06-23T04:28:25.676Z,6.27
2018-06-23T04:30:53.546Z,5.93
2018-06-23T04:33:21.433Z,6.43
2018-06-23T04:35:49.286Z,4.83
2018-06-23T04:38:17.158Z,4.77
2018-06-23T04:40:45.034Z,5.53
2018-06-23T04:43:12.875Z,5.13
2018-06-23T04:45:40.737Z,5.03
2018-06-23T04:48:08.475Z,4.87
2018-06-23T04:50:36.440Z,5.50
2018-06-23T04:53:04.311Z,5.60
2018-06-23T04:55:32.214Z,4.67
2018-06-23T04:58:00.121Z,5.60
2018-06-23T05:00:27.960Z,4.50
2018-06-23T05:02:56.318Z,5.13
2018-06-23T05:05:24.662Z,5.27
2018-06-23T05:07:52.599Z,5.40
2018-06-23T05:10:20.482Z,4.90
2018-06-23T05:12:48.656Z,5.00
2018-06-23T05:15:16.640Z,4.87
2018-06-23T05:17:44.602Z,4.67
2018-06-23T05:20:12.483Z,5.20
2018-06-23T05:22:40.438Z,5.17
2018-06-23T05:25:08.366Z,4.70
2018-06-23T05:27:36.256Z,5.60
2018-06-23T05:30:04.774Z,5.07
2018-06-23T05:32:32.656Z,5.33
2018-06-23T05:35:00.661Z,4.97
2018-06-23T05:37:28.568Z,4.60
2018-06-23T05:39:56.266Z,5.27
2018-06-23T05:42:24.070Z,6.00
2018-06-23T05:44:51.976Z,5.50
2018-06-23T05:47:19.786Z,4.97
2018-06-23T05:49:47.710Z,5.57
2018-06-23T05:52:15.607Z,5.23
2018-06-23T05:54:43.504Z,5.90
2018-06-23T05:57:11.394Z,5.67
2018-06-23T05:59:39.240Z,5.30
2018-06-23T06:02:07.270Z,6.93
2018-06-23T06:04:35.110Z,8.77
2018-06-23T06:07:02.782Z,7.53
2018-06-23T06:09:30.655Z,7.50
2018-06-23T06:11:58.771Z,8.43
2018-06-23T06:14:26.771Z,12.97
2018-06-23T06:17:29.026Z,9.23
2018-06-23T06:19:58.174Z,9.43
2018-06-23T06:22:27.319Z,9.10
2018-06-23T06:24:55.659Z,9.93
2018-06-23T06:27:23.604Z,17.50
2018-06-23T06:29:52.350Z,9.10
2018-06-23T06:32:20.254Z,6.60
2018-06-23T06:34:48.113Z,6.00
2018-06-23T06:37:16.020Z,5.70
2018-06-23T06:39:44.457Z,5.70
2018-06-23T06:42:12.640Z,5.20
2018-06-23T06:44:40.643Z,5.37
2018-06-23T06:47:09.193Z,5.47
2018-06-23T06:49:37.154Z,4.97
2018-06-23T06:52:06.052Z,6.10
2018-06-23T06:54:34.127Z,5.33
2018-06-23T06:57:02.223Z,5.57
2018-06-23T06:59:30.138Z,4.73
2018-06-23T07:01:58.031Z,5.70
2018-06-23T07:04:25.934Z,4.67
2018-06-23T07:06:54.007Z,4.70
2018-06-23T07:09:21.877Z,5.10
2018-06-23T07:11:49.825Z,5.43
2018-06-23T07:14:17.710Z,5.80
2018-06-23T07:16:45.608Z,5.23
2018-06-23T07:19:13.280Z,5.13
2018-06-23T07:21:41.219Z,4.80
2018-06-23T07:24:09.228Z,5.00
2018-06-23T07:26:37.090Z,5.00
2018-06-23T07:29:06.308Z,5.27
2018-06-23T07:31:34.758Z,4.87
2018-06-23T07:34:02.759Z,5.17
2018-06-23T07:36:30.774Z,5.20
2018-06-23T07:38:58.954Z,5.80
2018-06-23T07:41:26.767Z,5.53
2018-06-23T07:43:54.682Z,4.43
2018-06-23T07:46:22.584Z,4.57
2018-06-23T07:48:50.531Z,5.20
2018-06-23T07:51:18.613Z,4.20
2018-06-23T07:53:46.614Z,3.93
2018-06-23T07:56:14.500Z,4.67
2018-06-23T07:58:42.383Z,3.83
2018-06-23T08:01:10.317Z,4.13
2018-06-23T08:03:38.353Z,3.80
2018-06-23T08:06:06.456Z,3.63
2018-06-23T08:08:34.381Z,4.47
2018-06-23T08:11:02.751Z,4.10
2018-06-23T08:13:30.566Z,3.97
2018-06-23T08:15:58.589Z,4.80
2018-06-23T08:18:26.830Z,4.93
2018-06-23T08:20:54.842Z,3.57
2018-06-23T08:23:22.754Z,4.00
2018-06-23T08:25:50.626Z,4.37
2018-06-23T08:28:18.513Z,3.27
2018-06-23T08:30:46.387Z,3.53
2018-06-23T08:33:14.233Z,3.10
2018-06-23T08:35:42.197Z,3.80
2018-06-23T08:38:10.199Z,3.10
2018-06-23T08:40:38.091Z,3.30
2018-06-23T08:43:06.034Z,3.13
2018-06-23T08:45:33.927Z,2.90
2018-06-23T08:48:01.635Z,2.97
2018-06-23T08:50:29.542Z,3.63
2018-06-23T08:52:57.398Z,3.37
2018-06-23T08:55:25.304Z,3.60
2018-06-23T08:57:53.267Z,3.30
2018-06-23T09:00:21.187Z,3.70
2018-06-23T09:02:49.136Z,4.17
2018-06-23T09:05:16.793Z,4.13
2018-06-23T09:07:44.661Z,4.10
2018-06-23T09:10:12.561Z,4.30
2018-06-23T09:12:40.438Z,3.57
2018-06-23T09:15:08.598Z,3.37
2018-06-23T09:17:36.512Z,3.73
2018-06-23T09:20:04.583Z,3.10
2018-06-23T09:22:32.546Z,3.33
2018-06-23T09:25:00.550Z,3.53
2018-06-23T09:27:28.462Z,3.40
2018-06-23T09:29:56.362Z,3.43
2018-06-23T09:32:24.811Z,3.33
2018-06-23T09:34:52.742Z,3.60
2018-06-23T09:37:20.693Z,3.33
2018-06-23T09:39:51.277Z,3.20
2018-06-23T09:42:19.199Z,3.00
2018-06-23T09:44:47.183Z,3.07
2018-06-23T09:47:15.121Z,3.70
2018-06-23T09:49:43.027Z,3.27
2018-06-23T09:52:10.912Z,3.83
2018-06-23T09:54:39.226Z,3.03
2018-06-23T09:57:07.682Z,3.10
2018-06-23T09:59:36.651Z,3.00
2018-06-23T10:02:04.790Z,3.03
2018-06-23T10:04:32.754Z,2.60
2018-06-23T10:07:00.906Z,3.13
2018-06-23T10:09:28.678Z,3.77
2018-06-23T10:11:56.799Z,2.33
2018-06-23T10:14:24.765Z,3.57
2018-06-23T10:16:52.818Z,3.40
2018-06-23T10:19:20.724Z,2.40
2018-06-23T10:21:48.639Z,3.00
2018-06-23T10:24:16.531Z,2.33
2018-06-23T10:26:44.331Z,3.00
2018-06-23T10:29:12.225Z,2.80
2018-06-23T10:31:40.092Z,3.10
2018-06-23T10:34:07.945Z,2.23
2018-06-23T10:36:35.975Z,2.50
2018-06-23T10:39:06.652Z,2.60
2018-06-23T10:41:34.574Z,2.30
2018-06-23T10:44:02.985Z,2.40
2018-06-23T10:46:30.915Z,2.33
2018-06-23T10:48:58.803Z,2.20
2018-06-23T10:51:26.683Z,2.33
2018-06-23T10:53:54.822Z,1.90
2018-06-23T10:56:22.542Z,1.90
2018-06-23T10:58:50.540Z,2.47
2018-06-23T11:01:18.420Z,2.33
2018-06-23T11:03:46.468Z,2.53
2018-06-23T11:06:14.374Z,2.10
2018-06-23T11:08:42.351Z,3.50
2018-06-23T11:11:10.253Z,2.40
2018-06-23T11:13:38.142Z,3.03
2018-06-23T11:16:06.317Z,2.20
2018-06-23T11:18:34.355Z,2.33
2018-06-23T11:21:02.456Z,2.70
2018-06-23T11:23:30.504Z,2.73
2018-06-23T11:25:58.660Z,2.60
2018-06-23T11:28:26.585Z,2.17
2018-06-23T11:30:54.740Z,2.43
2018-06-23T11:33:22.876Z,2.30
2018-06-23T11:35:50.855Z,2.13
2018-06-23T11:38:18.827Z,2.90
2018-06-23T11:40:46.786Z,2.40
2018-06-23T11:43:14.762Z,2.87
2018-06-23T11:45:42.803Z,2.90
2018-06-23T11:48:10.697Z,2.83
2018-06-23T11:50:38.610Z,2.80
2018-06-23T11:53:06.560Z,2.53
2018-06-23T11:55:34.449Z,2.80
2018-06-23T11:58:02.371Z,3.53
2018-06-23T12:00:36.392Z,3.40
2018-06-23T12:03:04.587Z,3.07
2018-06-23T12:05:32.860Z,2.83
2018-06-23T12:08:00.791Z,2.87
2018-06-23T12:10:28.706Z,2.90
2018-06-23T12:12:56.671Z,3.53
2018-06-23T12:15:24.653Z,3.00
2018-06-23T12:17:52.585Z,3.03
2018-06-23T12:20:20.510Z,3.10
2018-06-23T12:22:48.711Z,3.30
2018-06-23T12:25:16.960Z,3.30
2018-06-23T12:27:45.228Z,2.37
2018-06-23T12:30:13.319Z,3.27
2018-06-23T12:32:41.240Z,3.00
2018-06-23T12:35:09.305Z,2.80
2018-06-23T12:37:37.235Z,4.00
2018-06-23T12:40:05.627Z,3.60
2018-06-23T12:42:33.773Z,3.53
2018-06-23T12:45:01.729Z,3.20
2018-06-23T12:47:29.687Z,3.67
2018-06-23T12:49:57.599Z,3.10
2018-06-23T12:52:25.526Z,4.00
2018-06-23T12:54:53.433Z,3.30
2018-06-23T12:57:22.716Z,3.50
2018-06-23T12:59:51.771Z,3.90
2018-06-23T13:02:21.664Z,3.53
2018-06-23T13:04:53.352Z,3.23
2018-06-23T13:07:22.174Z,3.17
2018-06-23T13:09:50.691Z,3.73
2018-06-23T13:12:18.804Z,3.50
2018-06-23T13:14:46.773Z,3.63
2018-06-23T13:17:14.753Z,3.97
2018-06-23T13:19:42.924Z,3.57
2018-06-23T13:22:10.993Z,3.57
2018-06-23T13:24:39.059Z,2.90
2018-06-23T13:27:06.894Z,3.20
2018-06-23T13:29:34.761Z,3.10
2018-06-23T13:32:02.723Z,3.00
2018-06-23T13:34:30.564Z,3.13
2018-06-23T13:36:58.574Z,2.57
2018-06-23T13:39:26.668Z,2.27
2018-06-23T13:41:54.552Z,2.47
2018-06-23T13:44:22.380Z,2.57
2018-06-23T13:46:50.408Z,2.27
2018-06-23T13:49:18.298Z,2.33
2018-06-23T13:51:46.255Z,2.90
2018-06-23T13:54:13.948Z,2.33
2018-06-23T13:56:41.874Z,2.40
2018-06-23T13:59:09.774Z,2.57
2018-06-23T14:01:37.621Z,2.60
2018-06-23T14:04:05.680Z,2.80
2018-06-23T14:06:33.805Z,2.27
2018-06-23T14:09:01.783Z,2.93
2018-06-23T14:11:29.783Z,2.30
2018-06-23T14:13:57.631Z,3.07
2018-06-23T14:16:25.594Z,2.57
2018-06-23T14:18:53.466Z,3.03
2018-06-23T14:21:21.362Z,2.70
2018-06-23T14:23:49.285Z,2.87
2018-06-23T14:26:17.109Z,2.27
2018-06-23T14:28:44.946Z,2.20
2018-06-23T14:31:13.204Z,2.40
2018-06-23T14:33:41.066Z,2.03
2018-06-23T14:36:08.882Z,1.80
2018-06-23T14:38:36.815Z,2.67
2018-06-23T14:41:04.661Z,2.00
2018-06-23T14:43:32.629Z,2.17
2018-06-23T14:46:00.676Z,2.37
2018-06-23T14:48:28.613Z,2.50
2018-06-23T14:50:56.443Z,2.50
2018-06-23T14:53:24.325Z,2.83
2018-06-23T14:55:52.272Z,2.23
2018-06-23T14:58:20.120Z,2.17
2018-06-23T15:00:48.387Z,2.30
2018-06-23T15:03:16.294Z,2.30
2018-06-23T15:05:44.135Z,2.43
2018-06-23T15:08:23.326Z,1.87
2018-06-23T15:11:02.457Z,1.73
2018-06-23T15:13:30.502Z,2.10
2018-06-23T15:15:58.699Z,1.93
2018-06-23T15:18:26.609Z,2.20
2018-06-23T15:20:54.479Z,2.40
2018-06-23T15:23:22.410Z,2.07
2018-06-23T15:25:50.306Z,2.10
2018-06-23T15:28:18.179Z,2.30
2018-06-23T15:30:46.090Z,1.90
2018-06-23T15:33:14.139Z,2.47
2018-06-23T15:35:42.127Z,2.43
2018-06-23T15:38:09.881Z,2.00
2018-06-23T15:40:37.865Z,2.23
2018-06-23T15:43:05.819Z,2.40
2018-06-23T15:45:33.741Z,3.03
2018-06-23T15:48:01.731Z,2.77
2018-06-23T15:50:29.666Z,2.67
2018-06-23T15:52:58.642Z,2.60
2018-06-23T15:55:26.779Z,2.50
2018-06-23T15:57:54.651Z,2.57
2018-06-23T16:00:22.614Z,3.00
2018-06-23T16:02:50.632Z,2.80
2018-06-23T16:05:18.658Z,3.93
2018-06-23T16:07:46.494Z,2.57
2018-06-23T16:10:19.067Z,2.53
2018-06-23T16:12:47.034Z,2.67
2018-06-23T16:15:15.376Z,2.13
2018-06-23T16:17:43.338Z,2.10
2018-06-23T16:20:11.445Z,2.30
2018-06-23T16:22:39.509Z,2.70
2018-06-23T16:25:07.568Z,2.87
2018-06-23T16:27:35.587Z,2.70
2018-06-23T16:30:04.109Z,2.90
2018-06-23T16:32:32.094Z,2.27
2018-06-23T16:35:00.174Z,2.43
2018-06-23T16:37:27.987Z,2.40
2018-06-23T16:39:55.951Z,2.77
2018-06-23T16:42:23.816Z,2.97
2018-06-23T16:44:51.693Z,2.50
2018-06-23T16:47:19.755Z,2.27
2018-06-23T16:49:47.612Z,2.27
2018-06-23T16:52:15.549Z,2.37
2018-06-23T16:54:43.578Z,2.70
2018-06-23T16:57:11.622Z,2.90
2018-06-23T16:59:39.524Z,2.63
2018-06-23T17:02:08.052Z,2.90
2018-06-23T17:04:35.974Z,2.57
2018-06-23T17:07:03.923Z,2.60
2018-06-23T17:09:31.855Z,2.33
2018-06-23T17:12:00.622Z,2.50
2018-06-23T17:14:28.354Z,2.50
2018-06-23T17:16:56.223Z,2.30
2018-06-23T17:19:24.135Z,2.80
2018-06-23T17:21:52.139Z,3.23
2018-06-23T17:24:20.003Z,3.70
2018-06-23T17:26:47.914Z,2.47
2018-06-23T17:29:15.803Z,2.67
2018-06-23T17:31:43.723Z,2.43
2018-06-23T17:34:11.618Z,2.13
2018-06-23T17:36:39.486Z,2.70
2018-06-23T17:39:08.843Z,2.67
2018-06-23T17:41:36.760Z,2.63
2018-06-23T17:44:04.823Z,2.87
2018-06-23T17:46:33.784Z,2.73
2018-06-23T17:49:01.651Z,2.63
2018-06-23T17:51:29.680Z,2.43
2018-06-23T17:53:57.530Z,2.73
2018-06-23T17:56:25.567Z,2.20
2018-06-23T17:58:53.775Z,2.57
2018-06-23T18:01:21.743Z,2.90
2018-06-23T18:03:49.591Z,2.33
2018-06-23T18:06:17.496Z,3.57
2018-06-23T18:08:45.479Z,2.37
2018-06-23T18:11:13.601Z,2.37
2018-06-23T18:13:41.492Z,2.53
2018-06-23T18:16:09.445Z,2.80
2018-06-23T18:18:37.448Z,2.73
2018-06-23T18:21:05.542Z,3.00
2018-06-23T18:23:33.416Z,2.53
2018-06-23T18:26:01.271Z,2.30
2018-06-23T18:28:29.463Z,2.80
2018-06-23T18:30:57.390Z,2.90
2018-06-23T18:33:25.232Z,2.77
2018-06-23T18:35:53.357Z,2.70
2018-06-23T18:38:21.017Z,2.37
2018-06-23T18:40:49.000Z,2.93
2018-06-23T18:43:16.887Z,3.13
2018-06-23T18:45:44.732Z,3.03
2018-06-23T18:48:12.719Z,2.67
2018-06-23T18:50:40.776Z,2.70
2018-06-23T18:53:08.894Z,3.53
2018-06-23T18:55:36.894Z,3.20
2018-06-23T18:58:05.030Z,3.40
2018-06-23T19:00:32.966Z,2.87
2018-06-23T19:03:00.810Z,3.40
2018-06-23T19:05:28.741Z,2.90
2018-06-23T19:07:56.747Z,3.53
2018-06-23T19:10:24.622Z,2.80
2018-06-23T19:12:52.687Z,3.43
2018-06-23T19:15:20.634Z,4.40
2018-06-23T19:17:48.675Z,3.43
2018-06-23T19:20:16.640Z,3.43
2018-06-23T19:22:44.444Z,2.97
2018-06-23T19:25:12.336Z,3.17
2018-06-23T19:27:40.211Z,3.27
2018-06-23T19:30:08.324Z,3.23
2018-06-23T19:32:36.223Z,3.23
2018-06-23T19:35:04.216Z,3.07
2018-06-23T19:37:32.136Z,3.80
2018-06-23T19:40:00.288Z,3.77
2018-06-23T19:42:28.148Z,3.00
2018-06-23T19:44:56.006Z,3.90
2018-06-23T19:47:23.811Z,3.97
2018-06-23T19:49:51.782Z,4.20
2018-06-23T19:52:19.725Z,4.07
2018-06-23T19:54:47.628Z,3.77
2018-06-23T19:57:15.641Z,4.30
2018-06-23T19:59:43.499Z,3.53
2018-06-23T20:02:11.527Z,3.70
2018-06-23T20:04:39.615Z,3.40
2018-06-23T20:07:07.574Z,4.00
2018-06-23T20:09:35.471Z,4.20
2018-06-23T20:12:03.456Z,4.27
2018-06-23T20:14:31.364Z,4.03
2018-06-23T20:16:59.225Z,5.00
2018-06-23T20:19:27.201Z,4.60
2018-06-23T20:21:55.357Z,4.03
2018-06-23T20:24:23.222Z,3.90
2018-06-23T20:26:51.139Z,3.63
2018-06-23T20:29:19.193Z,3.67
2018-06-23T20:31:47.112Z,3.93
2018-06-23T20:34:15.029Z,4.20
2018-06-23T20:36:43.266Z,3.53
2018-06-23T20:39:11.859Z,3.63
2018-06-23T20:41:40.137Z,3.83
2018-06-23T20:44:08.094Z,3.40
2018-06-23T20:46:36.015Z,4.13
2018-06-23T20:49:03.996Z,3.90
2018-06-23T20:51:31.887Z,4.47
2018-06-23T20:53:59.861Z,4.47
2018-06-23T20:56:27.747Z,4.43
2018-06-23T20:58:55.552Z,4.30
2018-06-23T21:01:23.387Z,4.40
2018-06-23T21:03:51.322Z,4.47
2018-06-23T21:06:19.250Z,4.80
2018-06-23T21:08:47.100Z,3.63
2018-06-23T21:11:14.997Z,4.63
2018-06-23T21:13:43.139Z,4.13
2018-06-23T21:16:11.011Z,4.33
2018-06-23T21:18:38.899Z,4.30
2018-06-23T21:21:06.769Z,5.37
2018-06-23T21:23:34.752Z,4.07
2018-06-23T21:26:02.803Z,4.30
2018-06-23T21:28:30.753Z,4.60
2018-06-23T21:30:58.710Z,4.80
2018-06-23T21:33:26.683Z,4.07
2018-06-23T21:35:54.623Z,4.87
2018-06-23T21:38:22.543Z,3.90
2018-06-23T21:40:50.566Z,4.00
2018-06-23T21:43:18.451Z,4.17
2018-06-23T21:45:46.398Z,5.13
2018-06-23T21:48:14.137Z,3.90
2018-06-23T21:50:42.122Z,4.77
2018-06-23T21:53:10.097Z,4.00
2018-06-23T21:55:37.886Z,4.20
2018-06-23T21:58:05.731Z,4.27
2018-06-23T22:00:38.813Z,4.00
2018-06-23T22:03:08.108Z,4.30
2018-06-23T22:05:36.069Z,4.30
2018-06-23T22:08:04.499Z,3.60
2018-06-23T22:10:32.430Z,4.60
2018-06-23T22:13:00.353Z,5.27
2018-06-23T22:15:28.348Z,4.33
2018-06-23T22:17:56.442Z,3.60
2018-06-23T22:20:24.202Z,4.50
2018-06-23T22:22:52.574Z,4.03
2018-06-23T22:25:21.035Z,4.10
2018-06-23T22:27:48.944Z,6.10
2018-06-23T22:30:16.833Z,4.83
2018-06-23T22:32:44.765Z,5.20
2018-06-23T22:35:12.346Z,6.10
2018-06-23T22:37:40.266Z,4.87
2018-06-23T22:40:08.761Z,4.30
2018-06-23T22:42:36.653Z,4.67
2018-06-23T22:45:05.269Z,4.90
2018-06-23T22:47:33.371Z,4.80
2018-06-23T22:50:01.732Z,4.80
2018-06-23T22:52:29.601Z,4.57
2018-06-23T22:54:57.533Z,4.60
2018-06-23T22:57:25.387Z,4.70
2018-06-23T22:59:53.323Z,4.90
2018-06-23T23:02:21.230Z,4.13
2018-06-23T23:04:49.071Z,4.70
2018-06-23T23:07:17.041Z,4.13
2018-06-23T23:09:44.968Z,4.40
2018-06-23T23:12:13.020Z,4.17
2018-06-23T23:14:40.875Z,5.03
2018-06-23T23:17:08.759Z,3.87
2018-06-23T23:19:36.643Z,3.63
2018-06-23T23:22:04.755Z,3.90
2018-06-23T23:24:32.567Z,4.37
2018-06-23T23:27:00.416Z,3.97
2018-06-23T23:29:28.269Z,5.10
2018-06-23T23:31:56.142Z,4.73
2018-06-23T23:34:23.950Z,4.63
2018-06-23T23:36:51.811Z,4.73
2018-06-23T23:39:19.669Z,4.27
2018-06-23T23:41:47.518Z,3.97
2018-06-23T23:44:15.352Z,4.60
2018-06-23T23:46:43.101Z,4.20
2018-06-23T23:49:11.009Z,4.93
2018-06-23T23:51:38.906Z,4.90
2018-06-23T23:54:06.798Z,5.27
2018-06-23T23:56:34.731Z,4.70
2018-06-23T23:59:02.930Z,4.53
